createdAt,value
2023-05-12T00:00:02.997Z,82.66
2023-05-12T00:02:41.501Z,82.83
2023-05-12T00:05:14.202Z,83.23
2023-05-12T00:07:43.963Z,83.52
2023-05-12T00:10:14.698Z,83.15
2023-05-12T00:12:44.601Z,83.64
2023-05-12T00:15:14.649Z,83.82
2023-05-12T00:17:44.399Z,84.33
2023-05-12T00:20:17.362Z,84.88
2023-05-12T00:22:47.283Z,85.12
2023-05-12T00:25:17.100Z,85.65
2023-05-12T00:27:46.985Z,85.59
2023-05-12T00:30:17.364Z,85.52
2023-05-12T00:32:47.340Z,86.17
2023-05-12T00:35:20.265Z,85.80
2023-05-12T00:37:50.186Z,85.75
2023-05-12T00:40:20.281Z,85.82
2023-05-12T00:42:50.519Z,85.63
2023-05-12T00:45:20.716Z,85.81
2023-05-12T00:47:50.702Z,85.71
2023-05-12T00:50:23.785Z,85.81
2023-05-12T00:52:53.678Z,86.16
2023-05-12T00:55:23.558Z,86.39
2023-05-12T00:57:53.650Z,86.05
2023-05-12T01:00:24.914Z,86.15
2023-05-12T01:02:54.923Z,86.17
2023-05-12T01:05:29.296Z,86.25
2023-05-12T01:08:12.987Z,86.75
2023-05-12T01:10:52.878Z,86.62
2023-05-12T01:13:24.978Z,86.66
2023-05-12T01:15:56.431Z,86.53
2023-05-12T01:18:26.992Z,86.59
2023-05-12T01:20:59.876Z,86.09
2023-05-12T01:23:32.117Z,86.40
2023-05-12T01:26:06.859Z,85.89
2023-05-12T01:28:37.693Z,86.01
2023-05-12T01:31:09.694Z,85.51
2023-05-12T01:33:41.548Z,85.83
2023-05-12T01:36:11.786Z,85.80
2023-05-12T01:38:42.618Z,86.02
2023-05-12T01:41:15.219Z,85.69
2023-05-12T01:43:45.269Z,85.46
2023-05-12T01:46:15.900Z,85.29
2023-05-12T01:48:46.566Z,85.50
2023-05-12T01:51:18.953Z,85.59
2023-05-12T01:53:48.961Z,85.49
2023-05-12T01:56:22.059Z,85.36
2023-05-12T01:58:52.209Z,85.68
2023-05-12T02:01:23.455Z,85.60
2023-05-12T02:03:53.514Z,85.60
2023-05-12T02:06:26.184Z,85.42
2023-05-12T02:08:56.251Z,85.51
2023-05-12T02:11:28.969Z,85.81
2023-05-12T02:13:59.248Z,85.66
2023-05-12T02:16:29.205Z,86.00
2023-05-12T02:18:59.183Z,85.84
2023-05-12T02:21:29.077Z,85.35
2023-05-12T02:23:59.059Z,85.68
2023-05-12T02:26:31.514Z,85.70
2023-05-12T02:29:01.362Z,85.98
2023-05-12T02:31:31.450Z,85.72
2023-05-12T02:34:02.168Z,85.67
2023-05-12T02:36:33.145Z,85.14
2023-05-12T02:39:03.154Z,84.98
2023-05-12T02:41:35.750Z,84.87
2023-05-12T02:44:05.603Z,85.32
2023-05-12T02:46:35.868Z,84.64
2023-05-12T02:49:05.709Z,84.74
2023-05-12T02:51:35.572Z,84.80
2023-05-12T02:54:05.786Z,84.72
2023-05-12T02:56:38.445Z,84.63
2023-05-12T02:59:08.289Z,84.02
2023-05-12T03:01:38.208Z,83.58
2023-05-12T03:04:08.135Z,82.43
2023-05-12T03:06:37.967Z,82.38
2023-05-12T03:09:07.770Z,82.96
2023-05-12T03:11:40.212Z,82.63
2023-05-12T03:14:10.355Z,81.80
2023-05-12T03:16:40.279Z,82.03
2023-05-12T03:19:10.204Z,82.32
2023-05-12T03:21:40.174Z,81.89
2023-05-12T03:24:10.443Z,81.86
2023-05-12T03:26:42.732Z,81.30
2023-05-12T03:29:12.443Z,81.69
2023-05-12T03:31:42.376Z,82.21
2023-05-12T03:34:12.768Z,82.22
2023-05-12T03:36:43.492Z,81.50
2023-05-12T03:39:13.581Z,80.99
2023-05-12T03:41:48.676Z,81.33
2023-05-12T03:44:21.648Z,81.22
2023-05-12T03:46:51.599Z,81.16
2023-05-12T03:49:21.854Z,81.14
2023-05-12T03:51:53.013Z,80.83
2023-05-12T03:58:20.602Z,80.39
2023-05-12T04:00:55.163Z,80.30
2023-05-12T04:03:25.093Z,79.98
2023-05-12T04:06:01.014Z,79.84
2023-05-12T04:08:30.956Z,79.87
2023-05-12T04:11:01.235Z,80.07
2023-05-12T04:13:34.046Z,80.90
2023-05-12T04:16:03.749Z,81.37
2023-05-12T04:18:33.590Z,80.97
2023-05-12T04:21:03.475Z,80.36
2023-05-12T04:23:33.188Z,80.63
2023-05-12T04:26:02.959Z,81.10
2023-05-12T04:28:37.093Z,81.31
2023-05-12T04:31:07.232Z,80.87
2023-05-12T04:33:37.912Z,80.27
2023-05-12T04:36:08.962Z,80.47
2023-05-12T04:38:38.818Z,80.54
2023-05-12T04:41:08.508Z,79.91
2023-05-12T04:46:13.636Z,81.41
2023-05-12T04:48:43.733Z,81.55
2023-05-12T04:51:13.505Z,81.42
2023-05-12T04:53:43.226Z,81.89
2023-05-12T04:56:13.038Z,81.76
2023-05-12T04:58:45.417Z,81.41
2023-05-12T05:01:15.150Z,80.79
2023-05-12T05:03:44.991Z,81.65
2023-05-12T05:06:15.066Z,82.35
2023-05-12T05:08:44.908Z,81.83
2023-05-12T05:11:14.660Z,81.19
2023-05-12T05:13:47.494Z,81.46
2023-05-12T05:16:17.332Z,81.59
2023-05-12T05:18:48.292Z,81.83
2023-05-12T05:21:18.600Z,82.23
2023-05-12T05:23:48.707Z,82.65
2023-05-12T05:26:18.894Z,82.29
2023-05-12T05:28:55.865Z,82.20
2023-05-12T05:31:29.103Z,82.85
2023-05-12T05:34:00.166Z,82.93
2023-05-12T05:36:31.468Z,82.68
2023-05-12T05:39:01.808Z,82.61
2023-05-12T05:41:32.032Z,82.60
2023-05-12T05:44:05.047Z,82.39
2023-05-12T05:46:35.231Z,82.12
2023-05-12T05:49:05.359Z,82.11
2023-05-12T05:51:35.419Z,82.64
2023-05-12T05:54:06.203Z,82.32
2023-05-12T05:56:36.315Z,82.96
2023-05-12T05:59:10.201Z,83.05
2023-05-12T06:01:40.814Z,83.40
2023-05-12T06:04:11.244Z,83.27
2023-05-12T06:06:41.631Z,83.55
2023-05-12T06:09:12.793Z,83.25
2023-05-12T06:11:43.077Z,82.83
2023-05-12T06:14:15.870Z,82.81
2023-05-12T06:16:46.030Z,82.26
2023-05-12T06:19:16.062Z,82.13
2023-05-12T06:21:46.277Z,81.42
2023-05-12T06:24:16.275Z,80.62
2023-05-12T06:26:46.748Z,79.17
2023-05-12T06:29:20.057Z,79.56
2023-05-12T06:31:50.704Z,79.51
2023-05-12T06:34:20.701Z,78.33
2023-05-12T06:36:51.313Z,78.25
2023-05-12T06:39:22.706Z,78.19
2023-05-12T06:41:52.772Z,77.57
2023-05-12T06:44:27.011Z,80.07
2023-05-12T06:46:57.001Z,78.52
2023-05-12T06:49:27.482Z,77.62
2023-05-12T06:51:57.606Z,77.30
2023-05-12T06:54:27.978Z,77.60
2023-05-12T07:03:54.759Z,74.64
2023-05-12T07:07:03.711Z,73.51
2023-05-12T07:12:52.585Z,73.15
2023-05-12T07:15:23.098Z,74.61
2023-05-12T07:17:53.350Z,76.79
2023-05-12T07:20:26.072Z,76.66
2023-05-12T07:22:56.773Z,73.46
2023-05-12T07:25:26.741Z,73.54
2023-05-12T07:27:56.659Z,71.89
2023-05-12T07:30:26.693Z,73.30
2023-05-12T07:32:56.658Z,71.91
2023-05-12T07:35:29.472Z,72.39
2023-05-12T07:37:59.693Z,69.29
2023-05-12T07:40:29.918Z,68.50
2023-05-12T07:43:00.154Z,70.40
2023-05-12T07:45:30.345Z,70.41
2023-05-12T07:48:00.592Z,69.33
2023-05-12T07:50:33.371Z,67.93
2023-05-12T07:53:03.516Z,68.37
2023-05-12T07:55:33.599Z,68.16
2023-05-12T07:58:04.058Z,68.25
2023-05-12T08:00:34.733Z,66.16
2023-05-12T08:03:04.911Z,66.84
2023-05-12T08:05:37.716Z,66.96
2023-05-12T08:08:09.594Z,66.71
2023-05-12T08:10:39.788Z,66.96
2023-05-12T08:13:09.905Z,67.30
2023-05-12T08:15:40.110Z,65.97
2023-05-12T08:18:10.371Z,66.92
2023-05-12T08:20:43.129Z,66.42
2023-05-12T08:23:13.498Z,70.47
2023-05-12T08:25:44.721Z,66.91
2023-05-12T08:28:15.200Z,65.26
2023-05-12T08:30:45.895Z,63.80
2023-05-12T08:33:16.238Z,64.46
2023-05-12T08:35:49.236Z,63.60
2023-05-12T08:38:19.403Z,62.27
2023-05-12T08:40:56.174Z,63.88
2023-05-12T08:43:30.270Z,64.75
2023-05-12T08:46:00.524Z,61.10
2023-05-12T08:48:31.345Z,59.46
2023-05-12T08:51:04.359Z,59.28
2023-05-12T08:53:36.830Z,57.19
2023-05-12T08:58:43.230Z,57.82
2023-05-12T09:01:15.180Z,58.32
2023-05-12T09:03:45.660Z,59.97
2023-05-12T09:06:20.131Z,58.56
2023-05-12T09:08:50.342Z,57.33
2023-05-12T09:11:22.193Z,54.24
2023-05-12T09:13:57.136Z,58.05
2023-05-12T09:16:28.525Z,62.07
2023-05-12T09:18:59.921Z,54.79
2023-05-12T09:21:32.888Z,54.26
2023-05-12T09:24:06.321Z,55.48
2023-05-12T09:26:48.671Z,56.53
2023-05-12T09:29:30.496Z,55.64
2023-05-12T09:32:03.061Z,54.62
2023-05-12T09:34:35.942Z,52.52
2023-05-12T09:37:09.781Z,53.92
2023-05-12T09:39:40.083Z,51.06
2023-05-12T09:42:14.946Z,60.13
2023-05-12T09:44:47.155Z,53.90
2023-05-12T09:47:17.907Z,59.75
2023-05-12T09:49:49.734Z,59.14
2023-05-12T09:52:23.893Z,53.16
2023-05-12T09:54:55.413Z,50.91
2023-05-12T09:57:27.032Z,53.15
2023-05-12T09:59:57.305Z,50.68
2023-05-12T10:02:28.303Z,44.88
2023-05-12T10:05:04.040Z,43.10
2023-05-12T10:07:37.245Z,43.76
2023-05-12T10:10:10.372Z,46.88
2023-05-12T10:12:40.675Z,43.14
2023-05-12T10:15:13.794Z,42.92
2023-05-12T10:17:44.531Z,43.99
2023-05-12T10:20:16.347Z,40.12
2023-05-12T10:22:49.857Z,41.02
2023-05-12T10:25:21.308Z,39.64
2023-05-12T10:27:52.799Z,35.65
2023-05-12T10:30:23.285Z,38.46
2023-05-12T10:32:54.060Z,39.13
2023-05-12T10:35:35.157Z,37.54
2023-05-12T10:38:09.293Z,38.31
2023-05-12T10:40:39.394Z,36.14
2023-05-12T10:43:09.537Z,35.87
2023-05-12T10:45:40.211Z,37.27
2023-05-12T10:48:11.351Z,35.86
2023-05-12T10:50:41.462Z,36.89
2023-05-12T10:53:14.583Z,35.74
2023-05-12T10:55:50.604Z,36.37
2023-05-12T10:58:21.164Z,36.61
2023-05-12T11:00:55.633Z,35.78
2023-05-12T11:03:28.928Z,37.52
2023-05-12T11:06:04.674Z,36.74
2023-05-12T11:08:40.444Z,34.23
2023-05-12T11:11:11.113Z,34.63
2023-05-12T11:13:41.425Z,34.86
2023-05-12T11:16:15.397Z,37.40
2023-05-12T11:18:45.636Z,38.22
2023-05-12T11:21:16.169Z,38.75
2023-05-12T11:23:53.559Z,38.02
2023-05-12T11:26:23.825Z,38.14
2023-05-12T11:28:54.160Z,39.65
2023-05-12T11:31:25.051Z,38.83
2023-05-12T11:34:13.395Z,38.20
2023-05-12T11:36:44.455Z,36.65
2023-05-12T11:39:24.537Z,36.30
2023-05-12T11:42:02.132Z,36.76
2023-05-12T11:44:39.778Z,34.40
2023-05-12T11:47:14.786Z,37.99
2023-05-12T11:49:49.619Z,33.37
2023-05-12T11:52:20.226Z,34.06
2023-05-12T11:55:00.917Z,34.11
2023-05-12T11:57:30.930Z,33.74
2023-05-12T12:00:01.959Z,34.34
2023-05-12T12:02:36.968Z,34.59
2023-05-12T12:05:09.213Z,33.64
2023-05-12T12:07:39.616Z,33.58
2023-05-12T12:10:21.947Z,31.54
2023-05-12T12:12:51.873Z,32.64
2023-05-12T12:15:21.671Z,33.14
2023-05-12T12:17:51.582Z,33.33
2023-05-12T12:20:22.088Z,35.32
2023-05-12T12:22:51.793Z,36.44
2023-05-12T12:25:24.471Z,35.44
2023-05-12T12:27:54.073Z,33.63
2023-05-12T12:30:23.912Z,35.61
2023-05-12T12:32:53.570Z,37.13
2023-05-12T12:35:24.551Z,39.13
2023-05-12T12:37:54.223Z,36.40
2023-05-12T12:40:26.446Z,37.39
2023-05-12T12:42:56.208Z,35.87
2023-05-12T12:45:26.634Z,32.68
2023-05-12T12:47:57.704Z,34.69
2023-05-12T12:50:27.533Z,35.79
2023-05-12T12:52:57.255Z,35.22
2023-05-12T12:55:29.571Z,36.37
2023-05-12T12:57:59.230Z,35.66
2023-05-12T13:00:28.981Z,38.33
2023-05-12T13:02:59.359Z,38.73
2023-05-12T13:05:29.108Z,35.94
2023-05-12T13:07:58.834Z,38.59
2023-05-12T13:10:31.221Z,38.75
2023-05-12T13:13:00.997Z,39.69
2023-05-12T13:15:32.457Z,40.27
2023-05-12T13:18:04.811Z,39.10
2023-05-12T13:20:34.593Z,40.98
2023-05-12T13:23:04.305Z,39.71
2023-05-12T13:25:36.579Z,37.30
2023-05-12T13:28:06.290Z,41.06
2023-05-12T13:30:44.653Z,40.31
2023-05-12T13:33:14.491Z,39.96
2023-05-12T13:35:44.491Z,36.97
2023-05-12T13:38:14.634Z,37.72
2023-05-12T13:40:47.046Z,40.68
2023-05-12T13:43:16.857Z,40.59
2023-05-12T13:45:46.850Z,38.17
2023-05-12T13:48:17.189Z,41.19
2023-05-12T13:50:46.905Z,39.65
2023-05-12T13:53:16.721Z,37.53
2023-05-12T13:55:49.161Z,36.02
2023-05-12T13:58:18.890Z,36.59
2023-05-12T14:00:49.530Z,37.10
2023-05-12T14:03:19.217Z,35.20
2023-05-12T14:05:49.059Z,35.74
2023-05-12T14:08:21.326Z,37.33
2023-05-12T14:10:53.684Z,36.84
2023-05-12T14:13:26.816Z,35.11
2023-05-12T14:15:57.165Z,39.75
2023-05-12T14:18:28.037Z,40.07
2023-05-12T14:20:57.899Z,39.31
2023-05-12T14:23:27.707Z,37.60
2023-05-12T14:26:00.423Z,36.01
2023-05-12T14:28:30.191Z,36.41
2023-05-12T14:30:59.968Z,36.92
2023-05-12T14:33:29.877Z,37.66
2023-05-12T14:36:07.129Z,40.20
2023-05-12T14:38:38.115Z,40.26
2023-05-12T14:41:10.478Z,38.69
2023-05-12T14:43:40.556Z,35.89
2023-05-12T14:46:10.548Z,38.19
2023-05-12T14:48:40.472Z,37.82
2023-05-12T14:51:12.163Z,36.83
2023-05-12T14:53:42.464Z,35.96
2023-05-12T14:56:15.070Z,36.54
2023-05-12T14:58:44.814Z,35.27
2023-05-12T15:01:14.682Z,39.04
2023-05-12T15:03:44.520Z,36.51
2023-05-12T15:06:16.613Z,36.97
2023-05-12T15:08:46.576Z,37.05
2023-05-12T15:11:18.972Z,37.99
2023-05-12T15:13:55.976Z,40.41
2023-05-12T15:16:28.217Z,35.24
2023-05-12T15:18:58.204Z,36.51
2023-05-12T15:21:27.944Z,37.74
2023-05-12T15:24:00.371Z,37.38
2023-05-12T15:26:34.670Z,35.55
2023-05-12T15:29:05.966Z,37.95
2023-05-12T15:31:35.970Z,38.49
2023-05-12T15:34:05.856Z,39.16
2023-05-12T15:39:30.747Z,39.29
2023-05-12T15:42:14.674Z,37.86
2023-05-12T15:44:51.715Z,39.03
2023-05-12T16:46:41.748Z,42.66
2023-05-12T16:49:12.203Z,42.73
2023-05-12T16:51:42.106Z,42.09
2023-05-12T16:54:12.128Z,41.26
2023-05-12T16:56:42.022Z,42.89
2023-05-12T16:59:11.814Z,43.51
2023-05-12T17:01:44.347Z,44.26
2023-05-12T17:04:15.649Z,44.82
2023-05-12T17:06:45.680Z,42.32
2023-05-12T17:09:15.589Z,42.96
2023-05-12T17:11:45.493Z,44.17
2023-05-12T17:14:17.845Z,44.00
2023-05-12T17:16:51.725Z,43.84
2023-05-12T17:19:22.245Z,42.62
2023-05-12T17:21:52.245Z,43.80
2023-05-12T17:24:22.016Z,44.26
2023-05-12T17:26:51.697Z,45.54
2023-05-12T17:29:21.443Z,44.61
2023-05-12T17:31:53.963Z,42.33
2023-05-12T17:34:23.773Z,43.64
2023-05-12T17:36:54.240Z,43.36
2023-05-12T17:39:23.894Z,44.88
2023-05-12T17:41:54.096Z,44.37
2023-05-12T17:44:24.232Z,45.05
2023-05-12T17:46:57.108Z,45.98
2023-05-12T17:49:27.329Z,45.58
2023-05-12T17:51:57.832Z,45.56
2023-05-12T17:54:27.677Z,45.75
2023-05-12T17:56:58.124Z,45.12
2023-05-12T17:59:28.360Z,46.24
2023-05-12T18:02:01.000Z,44.48
2023-05-12T18:04:31.587Z,46.14
2023-05-12T18:07:01.785Z,46.19
2023-05-12T18:09:32.104Z,46.33
2023-05-12T18:12:02.404Z,45.81
2023-05-12T18:14:32.851Z,46.49
2023-05-12T18:17:05.675Z,46.57
2023-05-12T18:19:35.945Z,46.93
2023-05-12T18:22:06.114Z,46.55
2023-05-12T18:24:36.327Z,47.31
2023-05-12T18:27:07.301Z,47.97
2023-05-12T18:29:37.417Z,47.43
2023-05-12T18:32:10.054Z,47.60
2023-05-12T18:34:41.663Z,47.01
2023-05-12T18:37:12.888Z,46.94
2023-05-12T18:39:43.082Z,47.71
2023-05-12T18:42:13.736Z,47.70
2023-05-12T18:44:43.685Z,47.66
2023-05-12T18:47:16.397Z,47.83
2023-05-12T18:49:46.502Z,48.04
2023-05-12T18:52:16.475Z,48.17
2023-05-12T18:54:48.836Z,48.40
2023-05-12T18:57:19.620Z,48.45
2023-05-12T18:59:49.603Z,48.79
2023-05-12T19:02:22.308Z,48.73
2023-05-12T19:04:52.725Z,48.82
2023-05-12T19:07:22.587Z,48.47
2023-05-12T19:09:52.534Z,48.89
2023-05-12T19:12:22.658Z,48.98
2023-05-12T19:14:52.861Z,49.49
2023-05-12T19:17:25.383Z,50.41
2023-05-12T19:19:55.423Z,51.94
2023-05-12T19:22:26.800Z,52.51
2023-05-12T19:24:57.108Z,53.15
2023-05-12T19:27:27.364Z,51.65
2023-05-12T19:29:57.728Z,52.24
2023-05-12T19:32:30.434Z,52.55
2023-05-12T19:35:01.103Z,52.82
2023-05-12T19:37:31.430Z,53.17
2023-05-12T19:40:01.310Z,53.40
2023-05-12T19:42:31.363Z,53.36
2023-05-12T19:45:01.492Z,53.11
2023-05-12T19:47:34.474Z,53.23
2023-05-12T19:50:04.745Z,52.71
2023-05-12T19:52:35.487Z,52.23
2023-05-12T19:55:05.840Z,52.57
2023-05-12T19:57:36.035Z,53.00
2023-05-12T20:00:06.820Z,52.78
2023-05-12T20:02:45.166Z,52.94
2023-05-12T20:05:15.510Z,52.03
2023-05-12T20:07:45.636Z,53.77
2023-05-12T20:10:15.755Z,54.11
2023-05-12T20:12:45.975Z,53.25
2023-05-12T20:15:19.588Z,53.59
2023-05-12T20:17:53.499Z,53.82
2023-05-12T20:20:31.652Z,53.11
2023-05-12T20:38:58.886Z,54.58
2023-05-12T20:45:34.504Z,50.70
2023-05-12T20:48:05.081Z,51.40
2023-05-12T20:50:34.909Z,52.38
2023-05-12T20:53:05.172Z,53.38
2023-05-12T20:55:36.336Z,54.30
2023-05-12T20:58:06.353Z,54.41
2023-05-12T21:00:39.314Z,54.59
2023-05-12T21:03:14.544Z,55.17
2023-05-12T21:05:48.051Z,55.22
2023-05-12T21:08:18.516Z,54.83
2023-05-12T21:10:49.276Z,57.04
2023-05-12T21:13:19.538Z,57.61
2023-05-12T21:15:52.367Z,55.82
2023-05-12T21:18:23.365Z,55.67
2023-05-12T21:20:53.516Z,56.17
2023-05-12T21:23:23.689Z,57.00
2023-05-12T21:25:55.954Z,57.66
2023-05-12T21:28:26.216Z,56.83
2023-05-12T21:30:59.065Z,57.05
2023-05-12T21:33:29.950Z,56.92
2023-05-12T21:36:00.064Z,57.27
2023-05-12T21:38:30.131Z,57.73
2023-05-12T21:41:00.607Z,57.61
2023-05-12T21:43:31.207Z,57.94
2023-05-12T21:46:07.844Z,58.16
2023-05-12T21:48:38.087Z,57.77
2023-05-12T21:51:08.586Z,58.51
2023-05-12T21:53:38.822Z,58.40
2023-05-12T21:56:10.148Z,58.39
2023-05-12T21:58:40.040Z,58.81
2023-05-12T22:01:12.616Z,59.05
2023-05-12T22:03:42.926Z,59.64
2023-05-12T22:06:13.146Z,59.43
2023-05-12T22:08:43.481Z,60.32
2023-05-12T22:11:14.297Z,60.03
2023-05-12T22:13:44.345Z,60.59
2023-05-12T22:16:17.022Z,60.88
2023-05-12T22:18:48.506Z,61.50
2023-05-12T22:21:18.677Z,61.37
2023-05-12T22:23:48.846Z,61.90
2023-05-12T22:26:19.144Z,61.97
2023-05-12T22:28:49.243Z,62.45
2023-05-12T22:31:21.901Z,62.59
2023-05-12T22:33:52.030Z,62.51
2023-05-12T22:36:22.080Z,62.01
2023-05-12T22:38:52.094Z,62.73
2023-05-12T22:41:22.089Z,62.78
2023-05-12T22:43:51.957Z,62.95
2023-05-12T22:46:24.551Z,62.81
2023-05-12T22:48:55.307Z,62.81
2023-05-12T22:51:25.034Z,62.93
2023-05-12T22:53:54.994Z,62.06
2023-05-12T22:56:24.983Z,61.96
2023-05-12T22:58:54.920Z,62.57
2023-05-12T23:01:27.717Z,62.46
2023-05-12T23:03:57.972Z,63.19
2023-05-12T23:06:28.126Z,63.13
2023-05-12T23:09:01.881Z,63.13
2023-05-12T23:11:32.114Z,62.97
2023-05-12T23:14:02.231Z,63.55
2023-05-12T23:16:34.861Z,63.65
2023-05-12T23:19:05.029Z,63.52
2023-05-12T23:21:35.280Z,63.25
2023-05-12T23:24:05.538Z,63.71
2023-05-12T23:26:35.547Z,63.59
2023-05-12T23:29:05.687Z,63.28
2023-05-12T23:31:38.302Z,63.55
2023-05-12T23:34:11.359Z,64.20
2023-05-12T23:36:41.582Z,64.58
2023-05-12T23:39:11.537Z,64.82
2023-05-12T23:41:41.586Z,64.99
2023-05-12T23:44:11.584Z,64.71
2023-05-12T23:46:44.260Z,64.69
2023-05-12T23:49:14.279Z,64.64
2023-05-12T23:51:57.368Z,64.61
2023-05-12T23:54:27.269Z,64.61
2023-05-12T23:56:57.054Z,64.51
2023-05-12T23:59:27.002Z,63.88
